createdAt,value
2019-04-29T00:00:26.655Z,76.00
2019-04-29T00:03:11.288Z,76.00
2019-04-29T00:05:56.180Z,76.10
2019-04-29T00:08:40.979Z,76.20
2019-04-29T00:11:25.928Z,76.40
2019-04-29T00:14:11.659Z,76.20
2019-04-29T00:17:01.122Z,76.70
2019-04-29T00:19:47.666Z,75.90
2019-04-29T00:22:32.825Z,75.90
2019-04-29T00:25:17.703Z,75.80
2019-04-29T00:28:02.666Z,75.80
2019-04-29T00:30:47.365Z,75.80
2019-04-29T00:33:32.132Z,76.00
2019-04-29T00:36:18.715Z,75.90
2019-04-29T00:39:06.936Z,75.90
2019-04-29T00:42:11.528Z,75.90
2019-04-29T00:44:56.620Z,76.20
2019-04-29T00:47:41.296Z,76.00
2019-04-29T00:50:25.912Z,75.90
2019-04-29T00:53:10.647Z,76.00
2019-04-29T00:55:55.500Z,75.90
2019-04-29T00:58:40.265Z,75.80
2019-04-29T01:01:25.765Z,75.80
2019-04-29T01:04:10.852Z,75.80
2019-04-29T01:06:55.611Z,75.80
2019-04-29T01:09:40.596Z,75.60
2019-04-29T01:12:25.400Z,75.80
2019-04-29T01:15:10.607Z,75.80
2019-04-29T01:17:55.466Z,76.00
2019-04-29T01:20:40.766Z,75.70
2019-04-29T01:23:25.845Z,75.80
2019-04-29T01:26:27.493Z,75.50
2019-04-29T01:29:14.213Z,75.60
2019-04-29T01:31:58.945Z,75.60
2019-04-29T01:34:51.724Z,75.60
2019-04-29T01:37:38.488Z,75.80
2019-04-29T01:40:42.144Z,75.80
2019-04-29T01:43:40.751Z,75.60
2019-04-29T01:46:25.989Z,75.70
2019-04-29T01:49:10.710Z,75.80
2019-04-29T01:51:55.738Z,75.70
2019-04-29T01:54:40.650Z,75.60
2019-04-29T01:57:25.426Z,75.70
2019-04-29T02:00:12.398Z,75.60
2019-04-29T02:02:57.121Z,75.60
2019-04-29T02:05:41.681Z,75.60
2019-04-29T02:08:26.506Z,75.60
2019-04-29T02:11:10.901Z,75.70
2019-04-29T02:13:55.440Z,75.80
2019-04-29T02:16:39.995Z,75.60
2019-04-29T02:19:24.570Z,75.60
2019-04-29T02:22:17.011Z,75.60
2019-04-29T02:25:10.151Z,75.60
2019-04-29T02:27:54.822Z,75.70
2019-04-29T02:30:42.972Z,75.40
2019-04-29T02:33:27.770Z,75.40
2019-04-29T02:36:12.597Z,75.40
2019-04-29T02:39:05.228Z,75.50
2019-04-29T02:42:08.715Z,75.50
2019-04-29T02:44:54.483Z,75.50
2019-04-29T02:47:38.860Z,75.50
2019-04-29T02:50:23.456Z,75.40
2019-04-29T02:53:07.955Z,75.60
2019-04-29T02:55:54.538Z,75.50
2019-04-29T02:58:41.131Z,75.30
2019-04-29T03:01:27.652Z,75.30
2019-04-29T03:04:14.329Z,75.30
2019-04-29T03:06:59.411Z,75.10
2019-04-29T03:09:44.243Z,75.30
2019-04-29T03:12:28.699Z,75.30
2019-04-29T03:15:16.961Z,75.40
2019-04-29T03:18:01.735Z,75.40
2019-04-29T03:20:48.447Z,75.60
2019-04-29T03:23:33.187Z,75.70
2019-04-29T03:26:17.681Z,75.60
2019-04-29T03:29:02.353Z,75.50
2019-04-29T03:31:46.845Z,75.40
2019-04-29T03:34:31.359Z,75.50
2019-04-29T03:37:16.046Z,75.10
2019-04-29T03:40:00.542Z,74.90
2019-04-29T03:42:45.250Z,75.00
2019-04-29T03:45:29.794Z,75.10
2019-04-29T03:48:14.590Z,75.20
2019-04-29T03:50:59.376Z,75.30
2019-04-29T03:53:43.713Z,75.30
2019-04-29T03:56:28.588Z,75.30
2019-04-29T03:59:12.918Z,75.30
2019-04-29T04:01:59.403Z,75.30
2019-04-29T04:04:51.893Z,75.40
2019-04-29T04:07:41.054Z,75.60
2019-04-29T04:10:25.470Z,75.40
2019-04-29T04:13:10.058Z,75.40
2019-04-29T04:15:54.739Z,75.50
2019-04-29T04:18:39.273Z,75.60
2019-04-29T04:21:24.564Z,75.60
2019-04-29T04:24:08.973Z,75.70
2019-04-29T04:26:53.509Z,75.80
2019-04-29T04:29:38.105Z,75.90
2019-04-29T04:32:22.633Z,76.20
2019-04-29T04:35:07.704Z,76.20
2019-04-29T04:37:52.077Z,76.40
2019-04-29T04:40:44.189Z,76.70
2019-04-29T04:43:28.778Z,76.50
2019-04-29T04:46:13.373Z,76.50
2019-04-29T04:48:58.254Z,76.70
2019-04-29T04:51:42.739Z,76.90
2019-04-29T04:54:27.234Z,76.80
2019-04-29T04:57:11.985Z,77.00
2019-04-29T04:59:56.378Z,77.30
2019-04-29T05:02:41.010Z,77.40
2019-04-29T05:05:25.728Z,77.40
2019-04-29T05:08:10.458Z,77.40
2019-04-29T05:10:54.668Z,77.30
2019-04-29T05:13:39.416Z,77.30
2019-04-29T05:16:23.973Z,77.40
2019-04-29T05:19:08.374Z,77.50
2019-04-29T05:21:52.995Z,77.70
2019-04-29T05:24:37.484Z,77.80
2019-04-29T05:27:21.834Z,77.70
2019-04-29T05:30:06.993Z,77.80
2019-04-29T05:32:51.286Z,77.80
2019-04-29T05:35:40.654Z,78.10
2019-04-29T05:38:27.440Z,78.10
2019-04-29T05:41:11.930Z,78.10
2019-04-29T05:44:01.224Z,78.10
2019-04-29T05:46:53.404Z,78.20
2019-04-29T05:49:42.859Z,78.40
2019-04-29T05:52:30.146Z,78.40
2019-04-29T05:55:15.463Z,78.30
2019-04-29T05:58:12.001Z,78.30
2019-04-29T06:00:58.174Z,78.40
2019-04-29T06:03:44.539Z,78.20
2019-04-29T06:06:29.612Z,78.10
2019-04-29T06:09:16.623Z,78.10
2019-04-29T06:12:00.252Z,78.30
2019-04-29T06:14:44.874Z,78.50
2019-04-29T06:17:29.423Z,78.70
2019-04-29T06:20:17.949Z,78.90
2019-04-29T06:23:00.545Z,79.10
2019-04-29T06:25:45.339Z,79.20
2019-04-29T06:28:29.624Z,79.30
2019-04-29T06:31:14.305Z,79.50
2019-04-29T06:34:00.625Z,79.50
2019-04-29T06:36:45.385Z,79.70
2019-04-29T06:39:29.979Z,79.70
2019-04-29T06:42:15.584Z,79.80
2019-04-29T06:45:02.777Z,80.00
2019-04-29T06:47:47.222Z,80.10
2019-04-29T06:50:32.080Z,80.10
2019-04-29T06:53:21.166Z,80.10
2019-04-29T06:56:03.127Z,80.10
2019-04-29T06:58:49.121Z,80.10
2019-04-29T07:01:37.446Z,80.10
2019-04-29T07:04:20.070Z,80.10
2019-04-29T07:07:04.725Z,80.10
2019-04-29T07:09:49.388Z,80.20
2019-04-29T07:12:34.001Z,80.30
2019-04-29T07:15:18.577Z,80.60
2019-04-29T07:18:03.220Z,80.40
2019-04-29T07:20:47.661Z,80.30
2019-04-29T07:23:32.158Z,80.10
2019-04-29T07:26:16.718Z,80.10
2019-04-29T07:29:01.277Z,80.10
2019-04-29T07:31:45.877Z,80.00
2019-04-29T07:34:33.695Z,80.00
2019-04-29T07:37:17.071Z,80.10
2019-04-29T07:40:03.643Z,80.10
2019-04-29T07:42:49.352Z,80.20
2019-04-29T07:45:50.718Z,79.00
2019-04-29T07:48:36.816Z,79.00
2019-04-29T07:51:22.144Z,79.10
2019-04-29T07:54:10.935Z,79.20
2019-04-29T07:56:53.465Z,79.30
2019-04-29T07:59:38.550Z,79.20
2019-04-29T08:02:24.245Z,79.20
2019-04-29T08:05:10.501Z,79.00
2019-04-29T08:07:55.979Z,78.50
2019-04-29T08:10:53.615Z,77.80
2019-04-29T08:13:27.725Z,77.10
2019-04-29T08:16:16.710Z,75.90
2019-04-29T08:18:59.550Z,75.40
2019-04-29T08:21:45.565Z,75.00
2019-04-29T08:24:31.511Z,75.80
2019-04-29T08:27:16.265Z,74.20
2019-04-29T08:30:01.232Z,73.80
2019-04-29T08:32:46.048Z,73.50
2019-04-29T08:35:32.704Z,73.20
2019-04-29T08:38:17.888Z,73.20
2019-04-29T08:41:02.777Z,73.00
2019-04-29T08:44:15.929Z,73.20
2019-04-29T08:47:00.882Z,73.20
2019-04-29T08:49:45.798Z,73.00
2019-04-29T08:52:30.610Z,72.30
2019-04-29T08:55:15.642Z,72.40
2019-04-29T08:58:00.511Z,72.30
2019-04-29T09:00:45.502Z,71.90
2019-04-29T09:03:40.001Z,72.10
2019-04-29T09:06:17.310Z,72.00
2019-04-29T09:09:04.973Z,71.70
2019-04-29T09:11:51.403Z,71.10
2019-04-29T09:14:36.242Z,71.00
2019-04-29T09:17:21.190Z,71.10
2019-04-29T09:20:07.704Z,70.20
2019-04-29T09:22:54.507Z,70.10
2019-04-29T09:26:02.446Z,69.90
2019-04-29T09:28:39.553Z,70.00
2019-04-29T09:31:24.400Z,69.00
2019-04-29T09:34:09.355Z,69.10
2019-04-29T09:36:54.172Z,69.50
2019-04-29T09:39:43.523Z,69.30
2019-04-29T09:42:38.070Z,69.30
2019-04-29T09:45:27.300Z,69.30
2019-04-29T09:48:11.742Z,68.90
2019-04-29T09:50:56.255Z,68.60
2019-04-29T09:53:40.707Z,68.40
2019-04-29T09:56:25.558Z,68.50
2019-04-29T09:59:28.309Z,68.90
2019-04-29T10:02:26.395Z,68.10
2019-04-29T10:05:14.639Z,67.60
2019-04-29T10:07:59.604Z,67.40
2019-04-29T10:10:44.285Z,67.20
2019-04-29T10:13:28.887Z,67.60
2019-04-29T10:16:36.034Z,67.50
2019-04-29T10:19:22.389Z,67.10
2019-04-29T10:22:07.325Z,66.30
2019-04-29T10:24:52.052Z,65.20
2019-04-29T10:27:36.972Z,65.10
2019-04-29T10:30:26.830Z,65.40
2019-04-29T10:33:12.813Z,66.00
2019-04-29T10:35:57.874Z,66.20
2019-04-29T10:38:45.010Z,66.90
2019-04-29T10:41:36.109Z,66.30
2019-04-29T10:44:37.984Z,65.50
2019-04-29T10:47:36.594Z,65.00
2019-04-29T10:50:26.619Z,65.40
2019-04-29T10:53:15.470Z,65.10
2019-04-29T10:56:00.906Z,66.00
2019-04-29T10:58:45.397Z,64.90
2019-04-29T11:02:08.996Z,64.30
2019-04-29T11:05:02.559Z,62.80
2019-04-29T11:07:49.114Z,63.10
2019-04-29T11:10:34.199Z,62.50
2019-04-29T11:13:18.937Z,61.40
2019-04-29T11:16:04.166Z,61.60
2019-04-29T11:18:48.970Z,62.00
2019-04-29T11:21:34.955Z,62.40
2019-04-29T11:24:24.006Z,62.00
2019-04-29T11:27:13.081Z,62.70
2019-04-29T11:29:58.531Z,63.20
2019-04-29T11:33:04.614Z,64.10
2019-04-29T11:35:53.721Z,64.40
2019-04-29T11:38:42.445Z,64.30
2019-04-29T11:41:29.238Z,64.10
2019-04-29T11:44:14.023Z,62.70
2019-04-29T11:46:58.727Z,61.00
2019-04-29T11:49:47.800Z,62.40
2019-04-29T11:52:31.790Z,61.70
2019-04-29T11:55:18.606Z,63.70
2019-04-29T11:58:04.969Z,63.30
2019-04-29T12:01:08.866Z,59.60
2019-04-29T12:03:58.302Z,60.20
2019-04-29T12:06:25.545Z,59.10
2019-04-29T12:08:53.097Z,57.60
2019-04-29T12:11:20.763Z,57.60
2019-04-29T12:13:51.466Z,57.60
2019-04-29T12:16:34.611Z,57.50
2019-04-29T12:19:09.167Z,57.70
2019-04-29T12:21:37.369Z,57.60
2019-04-29T12:24:03.745Z,57.70
2019-04-29T12:26:48.596Z,58.10
2019-04-29T12:29:33.517Z,58.50
2019-04-29T12:32:38.849Z,59.40
2019-04-29T12:35:25.478Z,60.20
2019-04-29T12:38:39.750Z,60.70
2019-04-29T12:41:20.986Z,61.00
2019-04-29T12:44:07.662Z,61.40
2019-04-29T12:46:57.521Z,61.50
2019-04-29T12:49:42.412Z,62.10
2019-04-29T12:52:29.278Z,62.10
2019-04-29T12:55:20.234Z,61.70
2019-04-29T12:58:02.663Z,60.90
2019-04-29T13:00:55.810Z,61.20
2019-04-29T13:03:42.481Z,61.00
2019-04-29T13:06:39.571Z,61.30
2019-04-29T13:09:17.305Z,61.80
2019-04-29T13:11:45.468Z,62.10
2019-04-29T13:14:02.744Z,62.40
2019-04-29T13:16:50.846Z,63.00
2019-04-29T13:19:20.558Z,63.70
2019-04-29T13:21:46.973Z,64.20
2019-04-29T13:24:23.115Z,64.50
2019-04-29T13:27:00.648Z,64.80
2019-04-29T13:29:45.823Z,65.30
2019-04-29T13:32:31.530Z,65.80
2019-04-29T13:35:17.557Z,66.20
2019-04-29T13:38:02.495Z,66.00
2019-04-29T13:40:47.290Z,66.50
2019-04-29T13:43:35.321Z,66.80
2019-04-29T13:46:20.912Z,67.10
2019-04-29T13:49:13.479Z,67.10
2019-04-29T13:51:56.416Z,67.00
2019-04-29T13:54:42.380Z,67.00
2019-04-29T13:57:28.278Z,67.10
2019-04-29T14:00:24.561Z,67.60
2019-04-29T14:03:20.286Z,68.00
2019-04-29T14:06:06.874Z,68.40
2019-04-29T14:08:54.190Z,69.40
2019-04-29T14:11:38.917Z,69.90
2019-04-29T14:14:24.653Z,70.60
2019-04-29T14:17:25.209Z,70.80
2019-04-29T14:19:58.243Z,70.90
2019-04-29T14:22:43.613Z,71.40
2019-04-29T14:25:28.690Z,71.70
2019-04-29T14:28:13.498Z,72.10
2019-04-29T14:30:58.486Z,72.00
2019-04-29T14:34:00.345Z,72.20
2019-04-29T14:36:44.024Z,72.20
2019-04-29T14:39:37.095Z,72.30
2019-04-29T14:42:17.513Z,72.80
2019-04-29T14:45:05.603Z,73.00
2019-04-29T14:48:11.057Z,73.10
2019-04-29T14:50:56.106Z,73.20
2019-04-29T14:53:55.281Z,73.40
2019-04-29T14:56:27.968Z,73.70
2019-04-29T14:59:13.004Z,73.90
2019-04-29T15:02:02.825Z,73.90
2019-04-29T15:04:47.599Z,74.00
2019-04-29T15:07:34.287Z,74.10
2019-04-29T15:10:19.372Z,74.30
2019-04-29T15:13:20.781Z,74.20
2019-04-29T15:16:14.151Z,74.30
2019-04-29T15:19:03.191Z,74.60
2019-04-29T15:21:50.423Z,74.70
2019-04-29T15:24:35.127Z,74.70
2019-04-29T15:27:19.863Z,74.60
2019-04-29T15:30:06.256Z,74.60
2019-04-29T15:32:53.161Z,74.40
2019-04-29T15:35:37.975Z,74.50
2019-04-29T15:38:22.963Z,74.30
2019-04-29T15:41:07.722Z,74.20
2019-04-29T15:44:06.088Z,74.20
2019-04-29T15:46:46.112Z,74.20
2019-04-29T15:49:26.604Z,74.30
2019-04-29T15:52:11.957Z,74.40
2019-04-29T15:54:56.729Z,74.10
2019-04-29T15:57:49.525Z,74.10
2019-04-29T16:00:36.704Z,74.30
2019-04-29T16:03:17.757Z,74.40
2019-04-29T16:06:20.501Z,74.30
2019-04-29T16:08:58.890Z,74.10
2019-04-29T16:12:05.030Z,74.00
2019-04-29T16:17:38.060Z,74.40
2019-04-29T16:20:21.697Z,74.30
2019-04-29T16:23:06.697Z,74.60
2019-04-29T16:25:52.168Z,74.60
2019-04-29T16:28:40.230Z,74.50
2019-04-29T16:31:25.189Z,74.30
2019-04-29T16:34:10.134Z,74.50
2019-04-29T16:36:55.008Z,74.70
2019-04-29T16:39:40.083Z,74.60
2019-04-29T16:42:26.927Z,74.50
2019-04-29T16:45:14.208Z,74.50
2019-04-29T16:47:58.800Z,74.20
2019-04-29T16:50:43.569Z,74.80
2019-04-29T16:53:28.596Z,74.50
2019-04-29T16:56:16.227Z,74.70
2019-04-29T16:59:08.924Z,74.90
2019-04-29T17:01:47.655Z,74.90
2019-04-29T17:04:32.902Z,75.20
2019-04-29T17:07:17.884Z,75.10
2019-04-29T17:10:18.220Z,75.10
2019-04-29T17:13:02.892Z,74.80
2019-04-29T17:18:34.359Z,74.80
2019-04-29T17:21:18.750Z,74.70
2019-04-29T17:24:03.419Z,74.70
2019-04-29T17:26:50.052Z,74.60
2019-04-29T17:29:55.369Z,74.70
2019-04-29T17:32:48.441Z,74.50
2019-04-29T17:35:14.560Z,74.60
2019-04-29T17:35:17.187Z,74.20
2019-04-29T17:35:32.774Z,74.80
2019-04-29T17:38:17.355Z,74.90
2019-04-29T17:41:01.972Z,75.10
2019-04-29T17:43:54.248Z,75.00
2019-04-29T17:46:43.427Z,75.10
2019-04-29T17:49:30.817Z,75.20
2019-04-29T17:52:17.943Z,75.30
2019-04-29T17:55:12.814Z,75.50
2019-04-29T17:58:11.888Z,75.60
2019-04-29T18:00:59.677Z,75.80
2019-04-29T18:04:03.065Z,75.90
2019-04-29T18:06:58.943Z,75.90
2019-04-29T18:09:44.950Z,76.00
2019-04-29T18:12:37.575Z,76.10
2019-04-29T18:15:20.226Z,76.20
2019-04-29T18:18:08.758Z,76.40
2019-04-29T18:20:59.514Z,76.40
2019-04-29T18:23:56.659Z,76.40
2019-04-29T18:26:48.164Z,76.60
2019-04-29T18:29:36.416Z,76.60
2019-04-29T18:32:20.204Z,76.50
2019-04-29T18:35:05.171Z,76.40
2019-04-29T18:37:49.984Z,76.60
2019-04-29T18:40:41.446Z,76.60
2019-04-29T18:43:23.142Z,76.80
2019-04-29T18:46:12.673Z,76.80
2019-04-29T18:48:55.850Z,76.80
2019-04-29T18:51:41.842Z,77.00
2019-04-29T18:54:27.050Z,77.00
2019-04-29T18:57:12.064Z,77.00
2019-04-29T18:59:56.995Z,77.00
2019-04-29T19:02:46.044Z,76.80
2019-04-29T19:05:32.435Z,76.80
2019-04-29T19:08:22.991Z,76.70
2019-04-29T19:11:05.045Z,76.70
2019-04-29T19:13:51.978Z,76.50
2019-04-29T19:16:39.261Z,76.60
2019-04-29T19:19:25.225Z,76.60
2019-04-29T19:22:10.199Z,76.50
2019-04-29T19:24:55.810Z,76.50
2019-04-29T19:27:40.760Z,76.50
2019-04-29T19:30:29.035Z,76.40
2019-04-29T19:33:12.606Z,76.50
2019-04-29T19:35:57.809Z,77.30
2019-04-29T19:38:44.142Z,76.60
2019-04-29T19:41:29.753Z,76.60
2019-04-29T19:44:15.548Z,76.60
2019-04-29T19:47:00.876Z,76.60
2019-04-29T19:49:45.906Z,76.70
2019-04-29T19:52:31.836Z,76.70
2019-04-29T19:55:16.842Z,76.80
2019-04-29T19:58:01.903Z,76.60
2019-04-29T20:00:47.774Z,76.60
2019-04-29T20:03:39.561Z,76.70
2019-04-29T20:06:25.478Z,76.70
2019-04-29T20:09:16.569Z,76.90
2019-04-29T20:11:55.848Z,76.80
2019-04-29T20:14:41.503Z,76.80
2019-04-29T20:17:36.608Z,76.80
2019-04-29T20:20:34.930Z,76.90
2019-04-29T20:23:25.090Z,76.90
2019-04-29T20:26:13.739Z,77.00
2019-04-29T20:28:55.503Z,77.10
2019-04-29T20:31:39.112Z,77.10
2019-04-29T20:34:28.095Z,77.10
2019-04-29T20:37:16.051Z,77.20
2019-04-29T20:40:00.714Z,77.20
2019-04-29T20:42:48.781Z,77.10
2019-04-29T20:45:32.127Z,77.20
2019-04-29T20:48:19.598Z,77.40
2019-04-29T20:51:11.537Z,77.40
2019-04-29T20:53:58.795Z,77.40
2019-04-29T20:56:46.985Z,77.50
2019-04-29T20:59:30.644Z,77.70
2019-04-29T21:02:29.469Z,77.50
2019-04-29T21:05:06.097Z,77.50
2019-04-29T21:08:02.347Z,77.50
2019-04-29T21:10:37.984Z,77.70
2019-04-29T21:13:31.439Z,77.70
2019-04-29T21:16:22.828Z,77.80
2019-04-29T21:19:08.839Z,77.80
2019-04-29T21:21:55.110Z,77.60
2019-04-29T21:24:39.644Z,77.70
2019-04-29T21:27:26.058Z,77.70
2019-04-29T21:30:11.528Z,77.80
2019-04-29T21:32:56.247Z,78.10
2019-04-29T21:35:57.856Z,78.00
2019-04-29T21:38:48.358Z,78.00
2019-04-29T21:41:37.924Z,78.20
2019-04-29T21:44:23.793Z,78.20
2019-04-29T21:47:09.619Z,78.40
2019-04-29T21:49:56.608Z,78.40
2019-04-29T21:52:41.272Z,78.70
2019-04-29T21:55:29.367Z,78.60
2019-04-29T21:58:13.056Z,78.60
2019-04-29T22:00:59.234Z,78.60
2019-04-29T22:03:44.325Z,78.90
2019-04-29T22:06:30.149Z,78.90
2019-04-29T22:09:16.243Z,78.90
2019-04-29T22:12:00.954Z,78.90
2019-04-29T22:14:52.765Z,78.90
2019-04-29T22:17:33.875Z,79.20
2019-04-29T22:20:19.265Z,79.00
2019-04-29T22:23:08.482Z,79.10
2019-04-29T22:25:51.324Z,79.10
2019-04-29T22:28:36.017Z,79.30
2019-04-29T22:31:20.935Z,79.20
2019-04-29T22:34:10.007Z,79.20
2019-04-29T22:36:57.206Z,79.10
2019-04-29T22:39:39.766Z,79.10
2019-04-29T22:42:27.802Z,79.20
2019-04-29T22:45:13.477Z,79.30
2019-04-29T22:48:12.168Z,79.30
2019-04-29T22:50:45.736Z,79.30
2019-04-29T22:53:31.330Z,79.30
2019-04-29T22:56:16.052Z,79.10
2019-04-29T22:59:01.240Z,79.30
2019-04-29T23:01:49.302Z,79.10
2019-04-29T23:04:32.771Z,79.30
2019-04-29T23:07:22.254Z,79.20
2019-04-29T23:10:05.727Z,79.00
2019-04-29T23:12:53.986Z,79.20
2019-04-29T23:15:37.698Z,79.30
2019-04-29T23:18:26.806Z,79.10
2019-04-29T23:21:20.528Z,79.10
2019-04-29T23:24:16.805Z,79.00
2019-04-29T23:26:59.849Z,79.00
2019-04-29T23:29:44.608Z,79.10
2019-04-29T23:32:29.312Z,79.20
2019-04-29T23:35:14.882Z,78.90
2019-04-29T23:38:04.025Z,78.90
2019-04-29T23:40:49.726Z,79.60
2019-04-29T23:43:35.434Z,78.70
2019-04-29T23:46:20.314Z,78.80
2019-04-29T23:49:06.790Z,79.40
2019-04-29T23:51:51.625Z,78.70
2019-04-29T23:54:44.155Z,78.80
2019-04-29T23:57:27.137Z,78.60
